• Join FlightAware (Why Join?)
  • Login
  • US Flag 
05:13PM EST


 

Airport Tracker/Info


-or-


 

Live Flight TrackerFlight Track Log ✈ SWA565 ✈ 21-Apr-2013 ✈ KLAS - KSFO

Flight Track Log - Related Links

Times and Time Zones

All times are in EDT time to prevent confusion due to time zone crossing. See the SWA565 flight status page for this flight to view local times or setup timezone preferences in your user account.

Time Position Orientation Groundspeed Altitude Reporting Facility
EDT Latitude Longitude Course Direction KTS MPH feet Rate Location/Type
01:42AM 36.0753 -115.1739 261° West 171 197 3,100  Level Los Angeles Center
01:43AM 36.0650 -115.2569 261° West 239 275 5,600 2,400 Climbing Los Angeles Center
01:43AM 36.0294 -115.2758 203° Southwest 246 283 7,400 2,400 Climbing Los Angeles Center
01:44AM 35.9975 -115.2844 192° South 261 300 8,000 2,220 Climbing Los Angeles Center
01:44AM 35.9522 -115.2917 187° South 264 304 9,700 2,280 Climbing Los Angeles Center
01:45AM 35.8692 -115.3111 191° South 283 326 11,800 2,100 Climbing Los Angeles Center
01:46AM 35.8394 -115.4178 251° West 336 387 14,000 2,100 Climbing Los Angeles Center
01:47AM 35.8522 -115.5425 277° West 359 413 16,100 2,460 Climbing Los Angeles Center
01:49AM 35.8658 -115.6706 278° West 364 419 19,200 2,340 Climbing Los Angeles Center
01:50AM 35.8811 -115.8256 277° West 372 428 21,400 1,740 Climbing Los Angeles Center
01:51AM 35.8958 -115.9586 278° West 391 450 23,100 1,560 Climbing Los Angeles Center
01:52AM 35.9711 -116.0567 314° West 397 457 24,600 1,440 Climbing Los Angeles Center
01:53AM 36.0592 -116.1583 317° Northwest 410 472 26,100 1,440 Climbing Los Angeles Center
01:54AM 36.1394 -116.2511 317° Northwest 416 479 27,600 1,560 Climbing Los Angeles Center
01:55AM 36.2242 -116.3486 317° Northwest 417 480 29,300 1,620 Climbing Los Angeles Center
01:56AM 36.3081 -116.4458 317° Northwest 415 478 31,000 1,560 Climbing Los Angeles Center
01:57AM 36.3900 -116.5408 317° Northwest 408 470 32,500 1,380 Climbing Los Angeles Center
01:58AM 36.4706 -116.6356 317° Northwest 402 463 33,900 1,260 Climbing Los Angeles Center
01:59AM 36.5569 -116.7353 317° Northwest 397 457 35,100 1,020 Climbing Los Angeles Center
02:00AM 36.6489 -116.8097 327° Northwest 397 457 36,000 420 Climbing Los Angeles Center
02:01AM 36.7544 -116.8906 328° Northwest 400 460 36,000  Level Los Angeles Center
02:02AM 36.8378 -116.9550 328° Northwest 398 458 36,000  Level Los Angeles Center
02:03AM 36.9317 -117.0258 329° Northwest 393 452 36,000  Level Los Angeles Center
02:04AM 37.0244 -117.0975 328° Northwest 391 450 36,000  Level Los Angeles Center
02:05AM 37.1178 -117.1697 328° Northwest 392 451 36,000  Level Los Angeles Center
02:06AM 37.2294 -117.2550 329° Northwest 390 449 36,000  Level Los Angeles Center
02:07AM 37.3222 -117.3258 329° Northwest 390 449 36,000  Level Los Angeles Center
02:08AM 37.4197 -117.3872 333° Northwest 390 449 36,000  Level Los Angeles Center
02:09AM 37.5158 -117.4497 333° Northwest 387 445 36,000  Level Los Angeles Center
02:10AM 37.6103 -117.5125 332° Northwest 382 440 36,000  Level Los Angeles Center
02:11AM 37.7044 -117.5722 333° Northwest 379 436 36,000  Level Los Angeles Center
02:12AM 37.7964 -117.6328 333° Northwest 372 428 36,000  Level Los Angeles Center
02:13AM 37.8886 -117.6922 333° Northwest 370 426 36,000  Level Los Angeles Center
02:14AM 37.9781 -117.7606 329° Northwest 373 429 36,000  Level Los Angeles Center
02:15AM 37.9917 -117.8925 277° West 391 450 36,000  Level Los Angeles Center
02:16AM 37.9764 -118.0311 262° West 399 459 36,000  Level Los Angeles Center
02:17AM 37.9467 -118.1686 255° West 412 474 36,000  Level Los Angeles Center
02:18AM 37.8142 -118.2481 205° Southwest 441 507 36,000 -300 Level Oakland Center
02:19AM 37.7219 -118.3378 218° Southwest 432 497 35,400 -1,560 Descending Oakland Center
02:20AM 37.7197 -118.4786 269° West 407 468 32,900 -1,740 Descending Oakland Center
02:21AM 37.7164 -118.6136 268° West 390 449 32,000 -480 Descending Oakland Center
02:22AM 37.7125 -118.7483 268° West 385 443 32,000  Level Oakland Center
02:23AM 37.7075 -118.8828 267° West 405 466 32,000  Level Oakland Center
02:24AM 37.7031 -119.0319 268° West 420 483 32,000  Level Oakland Center
02:25AM 37.6972 -119.1814 267° West 426 490 32,000  Level Oakland Center
02:26AM 37.6911 -119.3583 268° West 422 486 32,000  Level Oakland Center
02:27AM 37.6864 -119.5036 268° West 417 480 32,000  Level Oakland Center
02:28AM 37.6817 -119.6461 268° West 408 470 32,000  Level Oakland Center
02:29AM 37.6764 -119.7897 267° West 409 471 32,000  Level Oakland Center
02:30AM 37.6711 -119.9331 267° West 411 473 32,000 -1,260 Level Oakland Center
02:31AM 37.6653 -120.0761 267° West 409 471 29,500 -2,040 Descending Oakland Center
02:32AM 37.6594 -120.2172 267° West 405 466 28,000 -1,260 Descending Oakland Center
02:33AM 37.6539 -120.3528 267° West 392 451 27,000 -1,500 Descending Oakland Center
02:34AM 37.6489 -120.4892 267° West 389 448 25,000 -1,800 Descending Oakland Center
02:35AM 37.6425 -120.6181 266° West 373 429 23,400 -1,260 Descending Oakland Center
02:36AM 37.6333 -120.7333 264° West 373 429 22,700 -1,080 Descending Northern Cal TRACON
02:37AM 37.6333 -120.8500 270° West 355 409 21,500 -1,080 Descending Northern Cal TRACON
02:38AM 37.6333 -120.9833 270° West 364 419 20,600 -960 Descending Northern Cal TRACON
02:39AM 37.6167 -121.1167 261° West 367 422 19,600 -1,440 Descending Northern Cal TRACON
02:40AM 37.6000 -121.2333 260° West 357 411 17,800 -1,920 Descending Northern Cal TRACON
02:41AM 37.5833 -121.3500 260° West 339 390 15,800 -2,100 Descending Northern Cal TRACON
02:42AM 37.5667 -121.4500 258° West 330 380 13,700 -2,100 Descending Northern Cal TRACON
02:43AM 37.5500 -121.5667 260° West 323 372 11,700 -1,680 Descending Northern Cal TRACON
02:44AM 37.5333 -121.6833 260° West 310 357 10,400 -1,440 Descending Northern Cal TRACON
02:45AM 37.5167 -121.7833 258° West 295 339 8,900 -1,200 Descending Northern Cal TRACON
02:46AM 37.5000 -121.8667 256° West 285 328 8,100 -780 Descending Northern Cal TRACON
02:47AM 37.4833 -121.9667 258° West 271 312 7,400 -1,080 Descending Northern Cal TRACON
02:48AM 37.5000 -122.0500 284° West 269 310 6,000 -1,380 Descending Northern Cal TRACON
02:49AM 37.5333 -122.1333 297° West 240 276 4,700 -1,260 Descending Northern Cal TRACON
02:49AM 37.5369 -122.1406 302° West 256 295 4,400 -1,380 Descending Oakland Center
02:50AM 37.5631 -122.2058 297° West 230 265 3,000 -1,380 Descending Oakland Center
02:52AM 37.5828 -122.2686 292° West 209 241 1,700 -1,200 Descending Oakland Center
02:53AM 37.5964 -122.3214 288° West 179 206 600 -840 Descending Oakland Center
02:54AM 37.6164 -122.3750 295° West 167 192 100 -540 Descending Oakland Center